sensor_id;sensor_type;location;lat;lon;timestamp;P1;durP1;ratioP1;P2;durP2;ratioP2
18606;SDS011;9433;42.678;23.360;2022-09-03T00:00:16;6.23;;;4.27;;
18606;SDS011;9433;42.678;23.360;2022-09-03T00:02:47;6.43;;;4.00;;
18606;SDS011;9433;42.678;23.360;2022-09-03T00:05:20;6.77;;;3.13;;
18606;SDS011;9433;42.678;23.360;2022-09-03T00:07:53;5.87;;;3.97;;
18606;SDS011;9433;42.678;23.360;2022-09-03T00:10:27;6.07;;;3.70;;
18606;SDS011;9433;42.678;23.360;2022-09-03T00:12:59;5.77;;;3.87;;
18606;SDS011;9433;42.678;23.360;2022-09-03T00:15:29;4.30;;;3.47;;
18606;SDS011;9433;42.678;23.360;2022-09-03T00:18:03;6.30;;;4.37;;
18606;SDS011;9433;42.678;23.360;2022-09-03T00:20:33;5.00;;;4.03;;
18606;SDS011;9433;42.678;23.360;2022-09-03T00:23:05;4.40;;;3.80;;
18606;SDS011;9433;42.678;23.360;2022-09-03T00:25:35;6.27;;;3.73;;
18606;SDS011;9433;42.678;23.360;2022-09-03T00:28:05;6.23;;;4.20;;
18606;SDS011;9433;42.678;23.360;2022-09-03T00:30:37;4.97;;;3.63;;
18606;SDS011;9433;42.678;23.360;2022-09-03T00:33:08;5.30;;;3.47;;
18606;SDS011;9433;42.678;23.360;2022-09-03T00:35:40;5.00;;;4.00;;
18606;SDS011;9433;42.678;23.360;2022-09-03T00:38:12;4.10;;;3.50;;
18606;SDS011;9433;42.678;23.360;2022-09-03T00:40:49;4.67;;;3.90;;
18606;SDS011;9433;42.678;23.360;2022-09-03T00:43:29;4.57;;;3.60;;
18606;SDS011;9433;42.678;23.360;2022-09-03T00:46:13;4.27;;;3.40;;
18606;SDS011;9433;42.678;23.360;2022-09-03T00:48:55;5.47;;;3.73;;
18606;SDS011;9433;42.678;23.360;2022-09-03T00:51:32;7.20;;;3.90;;
18606;SDS011;9433;42.678;23.360;2022-09-03T00:54:08;4.57;;;3.43;;
18606;SDS011;9433;42.678;23.360;2022-09-03T00:56:43;4.43;;;3.80;;
18606;SDS011;9433;42.678;23.360;2022-09-03T00:59:18;4.27;;;3.70;;
18606;SDS011;9433;42.678;23.360;2022-09-03T01:01:58;3.80;;;3.50;;
18606;SDS011;9433;42.678;23.360;2022-09-03T01:04:37;4.77;;;3.70;;
18606;SDS011;9433;42.678;23.360;2022-09-03T01:07:13;4.33;;;3.90;;
18606;SDS011;9433;42.678;23.360;2022-09-03T01:09:58;4.83;;;3.67;;
18606;SDS011;9433;42.678;23.360;2022-09-03T01:12:40;4.47;;;3.73;;
18606;SDS011;9433;42.678;23.360;2022-09-03T01:15:14;3.83;;;3.43;;
18606;SDS011;9433;42.678;23.360;2022-09-03T01:17:53;5.87;;;3.83;;
18606;SDS011;9433;42.678;23.360;2022-09-03T01:20:47;5.50;;;3.80;;
18606;SDS011;9433;42.678;23.360;2022-09-03T01:26:42;5.13;;;3.67;;
18606;SDS011;9433;42.678;23.360;2022-09-03T01:29:32;5.50;;;4.03;;
18606;SDS011;9433;42.678;23.360;2022-09-03T01:32:04;4.70;;;3.17;;
18606;SDS011;9433;42.678;23.360;2022-09-03T01:34:40;4.30;;;3.80;;
18606;SDS011;9433;42.678;23.360;2022-09-03T01:37:14;4.53;;;3.80;;
18606;SDS011;9433;42.678;23.360;2022-09-03T01:39:52;5.87;;;4.23;;
18606;SDS011;9433;42.678;23.360;2022-09-03T01:42:30;4.50;;;3.47;;
18606;SDS011;9433;42.678;23.360;2022-09-03T01:45:06;4.33;;;3.70;;
18606;SDS011;9433;42.678;23.360;2022-09-03T01:47:55;4.67;;;3.70;;
18606;SDS011;9433;42.678;23.360;2022-09-03T01:50:38;6.27;;;3.53;;
18606;SDS011;9433;42.678;23.360;2022-09-03T01:53:14;4.70;;;3.73;;
18606;SDS011;9433;42.678;23.360;2022-09-03T01:55:55;6.20;;;3.97;;
18606;SDS011;9433;42.678;23.360;2022-09-03T01:58:37;4.53;;;3.47;;
18606;SDS011;9433;42.678;23.360;2022-09-03T02:01:10;7.60;;;4.40;;
18606;SDS011;9433;42.678;23.360;2022-09-03T02:03:42;4.80;;;3.40;;
18606;SDS011;9433;42.678;23.360;2022-09-03T02:06:12;4.87;;;4.10;;
18606;SDS011;9433;42.678;23.360;2022-09-03T02:08:44;4.70;;;4.13;;
18606;SDS011;9433;42.678;23.360;2022-09-03T02:11:11;5.50;;;4.07;;
18606;SDS011;9433;42.678;23.360;2022-09-03T02:13:39;6.77;;;4.53;;
18606;SDS011;9433;42.678;23.360;2022-09-03T02:16:11;4.97;;;4.07;;
18606;SDS011;9433;42.678;23.360;2022-09-03T02:18:41;4.30;;;3.90;;
18606;SDS011;9433;42.678;23.360;2022-09-03T02:21:12;4.40;;;3.67;;
18606;SDS011;9433;42.678;23.360;2022-09-03T02:23:41;5.33;;;3.90;;
18606;SDS011;9433;42.678;23.360;2022-09-03T02:26:09;5.03;;;3.83;;
18606;SDS011;9433;42.678;23.360;2022-09-03T02:28:38;5.67;;;4.43;;
18606;SDS011;9433;42.678;23.360;2022-09-03T02:31:05;6.53;;;3.97;;
18606;SDS011;9433;42.678;23.360;2022-09-03T02:33:34;6.47;;;3.83;;
18606;SDS011;9433;42.678;23.360;2022-09-03T02:36:03;5.50;;;4.40;;
18606;SDS011;9433;42.678;23.360;2022-09-03T02:38:33;5.13;;;4.27;;
18606;SDS011;9433;42.678;23.360;2022-09-03T02:40:59;5.03;;;4.10;;
18606;SDS011;9433;42.678;23.360;2022-09-03T02:43:29;5.17;;;4.13;;
18606;SDS011;9433;42.678;23.360;2022-09-03T02:46:00;5.60;;;3.87;;
18606;SDS011;9433;42.678;23.360;2022-09-03T02:48:28;6.93;;;4.23;;
18606;SDS011;9433;42.678;23.360;2022-09-03T02:50:57;5.43;;;4.43;;
18606;SDS011;9433;42.678;23.360;2022-09-03T02:53:24;7.10;;;4.27;;
18606;SDS011;9433;42.678;23.360;2022-09-03T02:55:52;5.33;;;3.47;;
18606;SDS011;9433;42.678;23.360;2022-09-03T02:58:23;7.20;;;4.27;;
18606;SDS011;9433;42.678;23.360;2022-09-03T03:00:50;7.90;;;4.10;;
18606;SDS011;9433;42.678;23.360;2022-09-03T03:03:17;5.23;;;4.17;;
18606;SDS011;9433;42.678;23.360;2022-09-03T03:05:45;5.53;;;4.10;;
18606;SDS011;9433;42.678;23.360;2022-09-03T03:08:16;7.50;;;4.47;;
18606;SDS011;9433;42.678;23.360;2022-09-03T03:10:45;5.47;;;4.03;;
18606;SDS011;9433;42.678;23.360;2022-09-03T03:13:13;5.33;;;4.43;;
18606;SDS011;9433;42.678;23.360;2022-09-03T03:15:40;5.00;;;3.87;;
18606;SDS011;9433;42.678;23.360;2022-09-03T03:18:07;6.93;;;4.23;;
18606;SDS011;9433;42.678;23.360;2022-09-03T03:20:36;6.60;;;4.47;;
18606;SDS011;9433;42.678;23.360;2022-09-03T03:23:03;6.70;;;4.60;;
18606;SDS011;9433;42.678;23.360;2022-09-03T03:25:32;5.30;;;4.47;;
18606;SDS011;9433;42.678;23.360;2022-09-03T03:27:59;8.20;;;4.87;;
18606;SDS011;9433;42.678;23.360;2022-09-03T03:30:26;8.83;;;4.23;;
18606;SDS011;9433;42.678;23.360;2022-09-03T03:32:53;7.17;;;4.23;;
18606;SDS011;9433;42.678;23.360;2022-09-03T03:35:20;8.23;;;4.23;;
18606;SDS011;9433;42.678;23.360;2022-09-03T03:37:47;5.33;;;4.13;;
18606;SDS011;9433;42.678;23.360;2022-09-03T03:40:14;4.97;;;4.40;;
18606;SDS011;9433;42.678;23.360;2022-09-03T03:42:43;8.70;;;4.13;;
18606;SDS011;9433;42.678;23.360;2022-09-03T03:45:10;5.30;;;4.37;;
18606;SDS011;9433;42.678;23.360;2022-09-03T03:47:37;4.87;;;3.70;;
18606;SDS011;9433;42.678;23.360;2022-09-03T03:50:04;6.57;;;4.10;;
18606;SDS011;9433;42.678;23.360;2022-09-03T03:52:31;6.03;;;4.40;;
18606;SDS011;9433;42.678;23.360;2022-09-03T03:54:58;6.70;;;4.07;;
18606;SDS011;9433;42.678;23.360;2022-09-03T03:57:28;9.13;;;4.17;;
18606;SDS011;9433;42.678;23.360;2022-09-03T03:59:58;6.03;;;4.27;;
18606;SDS011;9433;42.678;23.360;2022-09-03T04:02:25;6.03;;;4.53;;
18606;SDS011;9433;42.678;23.360;2022-09-03T04:04:52;6.33;;;4.40;;
18606;SDS011;9433;42.678;23.360;2022-09-03T04:07:18;5.87;;;4.40;;
18606;SDS011;9433;42.678;23.360;2022-09-03T04:09:45;6.00;;;4.23;;
18606;SDS011;9433;42.678;23.360;2022-09-03T04:12:13;5.53;;;4.13;;
18606;SDS011;9433;42.678;23.360;2022-09-03T04:14:40;7.40;;;4.47;;
18606;SDS011;9433;42.678;23.360;2022-09-03T04:17:08;5.83;;;4.00;;
18606;SDS011;9433;42.678;23.360;2022-09-03T04:19:35;5.20;;;3.90;;
18606;SDS011;9433;42.678;23.360;2022-09-03T04:22:02;5.87;;;4.17;;
18606;SDS011;9433;42.678;23.360;2022-09-03T04:24:29;6.27;;;4.37;;
18606;SDS011;9433;42.678;23.360;2022-09-03T04:26:56;6.43;;;4.23;;
18606;SDS011;9433;42.678;23.360;2022-09-03T04:29:23;6.23;;;4.17;;
18606;SDS011;9433;42.678;23.360;2022-09-03T04:31:49;9.10;;;4.30;;
18606;SDS011;9433;42.678;23.360;2022-09-03T04:34:35;6.17;;;4.50;;
18606;SDS011;9433;42.678;23.360;2022-09-03T04:37:02;6.63;;;4.47;;
18606;SDS011;9433;42.678;23.360;2022-09-03T04:39:29;5.40;;;3.97;;
18606;SDS011;9433;42.678;23.360;2022-09-03T04:41:55;5.33;;;3.93;;
18606;SDS011;9433;42.678;23.360;2022-09-03T04:44:22;7.23;;;4.03;;
18606;SDS011;9433;42.678;23.360;2022-09-03T04:46:49;6.70;;;4.53;;
18606;SDS011;9433;42.678;23.360;2022-09-03T04:49:17;7.53;;;4.70;;
18606;SDS011;9433;42.678;23.360;2022-09-03T04:51:45;5.87;;;3.80;;
18606;SDS011;9433;42.678;23.360;2022-09-03T04:54:12;6.30;;;4.03;;
18606;SDS011;9433;42.678;23.360;2022-09-03T04:56:39;5.87;;;4.37;;
18606;SDS011;9433;42.678;23.360;2022-09-03T04:59:07;6.30;;;4.03;;
18606;SDS011;9433;42.678;23.360;2022-09-03T05:01:35;5.37;;;4.27;;
18606;SDS011;9433;42.678;23.360;2022-09-03T05:04:03;5.73;;;3.87;;
18606;SDS011;9433;42.678;23.360;2022-09-03T05:06:31;6.20;;;4.87;;
18606;SDS011;9433;42.678;23.360;2022-09-03T05:09:00;6.17;;;4.80;;
18606;SDS011;9433;42.678;23.360;2022-09-03T05:11:27;7.07;;;4.20;;
18606;SDS011;9433;42.678;23.360;2022-09-03T05:13:55;8.00;;;4.10;;
18606;SDS011;9433;42.678;23.360;2022-09-03T05:16:24;5.50;;;3.87;;
18606;SDS011;9433;42.678;23.360;2022-09-03T05:18:54;5.73;;;4.10;;
18606;SDS011;9433;42.678;23.360;2022-09-03T05:21:23;4.70;;;3.50;;
18606;SDS011;9433;42.678;23.360;2022-09-03T05:23:50;7.40;;;3.73;;
18606;SDS011;9433;42.678;23.360;2022-09-03T05:26:19;4.67;;;3.93;;
18606;SDS011;9433;42.678;23.360;2022-09-03T05:28:47;5.20;;;4.13;;
18606;SDS011;9433;42.678;23.360;2022-09-03T05:31:18;5.20;;;3.87;;
18606;SDS011;9433;42.678;23.360;2022-09-03T05:33:46;5.83;;;3.90;;
18606;SDS011;9433;42.678;23.360;2022-09-03T05:36:15;4.40;;;3.70;;
18606;SDS011;9433;42.678;23.360;2022-09-03T05:38:44;6.47;;;3.33;;
18606;SDS011;9433;42.678;23.360;2022-09-03T05:41:13;4.73;;;3.40;;
18606;SDS011;9433;42.678;23.360;2022-09-03T05:43:42;6.47;;;4.27;;
18606;SDS011;9433;42.678;23.360;2022-09-03T05:46:10;5.67;;;4.37;;
18606;SDS011;9433;42.678;23.360;2022-09-03T05:48:38;6.13;;;3.87;;
18606;SDS011;9433;42.678;23.360;2022-09-03T05:51:08;5.40;;;3.70;;
18606;SDS011;9433;42.678;23.360;2022-09-03T05:53:36;5.80;;;4.30;;
18606;SDS011;9433;42.678;23.360;2022-09-03T05:56:05;4.70;;;3.53;;
18606;SDS011;9433;42.678;23.360;2022-09-03T05:58:35;6.83;;;3.90;;
18606;SDS011;9433;42.678;23.360;2022-09-03T06:01:12;5.63;;;3.83;;
18606;SDS011;9433;42.678;23.360;2022-09-03T06:03:40;4.83;;;3.70;;
18606;SDS011;9433;42.678;23.360;2022-09-03T06:06:09;5.17;;;3.90;;
18606;SDS011;9433;42.678;23.360;2022-09-03T06:08:38;5.90;;;3.70;;
18606;SDS011;9433;42.678;23.360;2022-09-03T06:11:05;6.40;;;4.10;;
18606;SDS011;9433;42.678;23.360;2022-09-03T06:13:32;6.23;;;4.23;;
18606;SDS011;9433;42.678;23.360;2022-09-03T06:16:01;7.10;;;4.73;;
18606;SDS011;9433;42.678;23.360;2022-09-03T06:18:30;5.60;;;4.03;;
18606;SDS011;9433;42.678;23.360;2022-09-03T06:20:57;4.37;;;3.67;;
18606;SDS011;9433;42.678;23.360;2022-09-03T06:23:26;5.13;;;4.30;;
18606;SDS011;9433;42.678;23.360;2022-09-03T06:26:00;5.17;;;3.87;;
18606;SDS011;9433;42.678;23.360;2022-09-03T06:28:29;6.57;;;5.00;;
18606;SDS011;9433;42.678;23.360;2022-09-03T06:30:58;9.50;;;4.43;;
18606;SDS011;9433;42.678;23.360;2022-09-03T06:33:26;5.97;;;4.27;;
18606;SDS011;9433;42.678;23.360;2022-09-03T06:35:56;5.10;;;3.90;;
18606;SDS011;9433;42.678;23.360;2022-09-03T06:38:24;6.90;;;4.87;;
18606;SDS011;9433;42.678;23.360;2022-09-03T06:40:52;5.53;;;4.13;;
18606;SDS011;9433;42.678;23.360;2022-09-03T06:43:20;5.60;;;4.13;;
18606;SDS011;9433;42.678;23.360;2022-09-03T06:45:53;6.07;;;4.10;;
18606;SDS011;9433;42.678;23.360;2022-09-03T06:48:24;10.67;;;5.60;;
18606;SDS011;9433;42.678;23.360;2022-09-03T06:50:52;5.23;;;4.17;;
18606;SDS011;9433;42.678;23.360;2022-09-03T06:53:25;5.10;;;3.80;;
18606;SDS011;9433;42.678;23.360;2022-09-03T06:55:54;5.27;;;4.20;;
18606;SDS011;9433;42.678;23.360;2022-09-03T06:58:22;6.17;;;4.63;;
18606;SDS011;9433;42.678;23.360;2022-09-03T07:00:54;5.40;;;4.27;;
18606;SDS011;9433;42.678;23.360;2022-09-03T07:03:26;6.40;;;4.27;;
18606;SDS011;9433;42.678;23.360;2022-09-03T07:05:53;6.53;;;4.90;;
18606;SDS011;9433;42.678;23.360;2022-09-03T07:08:26;6.00;;;3.87;;
18606;SDS011;9433;42.678;23.360;2022-09-03T07:10:53;6.33;;;4.40;;
18606;SDS011;9433;42.678;23.360;2022-09-03T07:13:20;6.57;;;4.73;;
18606;SDS011;9433;42.678;23.360;2022-09-03T07:15:47;6.53;;;4.80;;
18606;SDS011;9433;42.678;23.360;2022-09-03T07:18:23;6.70;;;4.60;;
18606;SDS011;9433;42.678;23.360;2022-09-03T07:20:50;8.43;;;4.67;;
18606;SDS011;9433;42.678;23.360;2022-09-03T07:23:17;8.17;;;4.67;;
18606;SDS011;9433;42.678;23.360;2022-09-03T07:25:52;5.27;;;4.27;;
18606;SDS011;9433;42.678;23.360;2022-09-03T07:28:20;5.97;;;4.70;;
18606;SDS011;9433;42.678;23.360;2022-09-03T07:30:47;6.20;;;4.30;;
18606;SDS011;9433;42.678;23.360;2022-09-03T07:33:14;5.90;;;4.43;;
18606;SDS011;9433;42.678;23.360;2022-09-03T07:35:41;5.63;;;4.40;;
18606;SDS011;9433;42.678;23.360;2022-09-03T07:38:08;5.73;;;4.87;;
18606;SDS011;9433;42.678;23.360;2022-09-03T07:40:35;4.90;;;3.67;;
18606;SDS011;9433;42.678;23.360;2022-09-03T07:43:04;4.53;;;4.00;;
18606;SDS011;9433;42.678;23.360;2022-09-03T07:45:31;6.10;;;4.63;;
18606;SDS011;9433;42.678;23.360;2022-09-03T07:47:58;7.03;;;4.67;;
18606;SDS011;9433;42.678;23.360;2022-09-03T07:50:25;6.43;;;4.50;;
18606;SDS011;9433;42.678;23.360;2022-09-03T07:52:55;5.57;;;4.17;;
18606;SDS011;9433;42.678;23.360;2022-09-03T07:55:23;4.77;;;4.23;;
18606;SDS011;9433;42.678;23.360;2022-09-03T07:57:54;5.67;;;4.10;;
18606;SDS011;9433;42.678;23.360;2022-09-03T08:00:23;5.33;;;4.13;;
18606;SDS011;9433;42.678;23.360;2022-09-03T08:02:50;4.83;;;4.20;;
18606;SDS011;9433;42.678;23.360;2022-09-03T08:05:17;6.63;;;4.77;;
18606;SDS011;9433;42.678;23.360;2022-09-03T08:07:44;4.87;;;4.07;;
18606;SDS011;9433;42.678;23.360;2022-09-03T08:10:12;7.27;;;4.53;;
18606;SDS011;9433;42.678;23.360;2022-09-03T08:12:40;4.57;;;3.57;;
18606;SDS011;9433;42.678;23.360;2022-09-03T08:15:07;6.50;;;4.10;;
18606;SDS011;9433;42.678;23.360;2022-09-03T08:17:35;4.70;;;4.20;;
18606;SDS011;9433;42.678;23.360;2022-09-03T08:20:02;4.97;;;3.67;;
18606;SDS011;9433;42.678;23.360;2022-09-03T08:22:29;4.50;;;3.67;;
18606;SDS011;9433;42.678;23.360;2022-09-03T08:24:56;4.93;;;4.10;;
18606;SDS011;9433;42.678;23.360;2022-09-03T08:27:24;4.43;;;4.00;;
18606;SDS011;9433;42.678;23.360;2022-09-03T08:29:51;6.00;;;4.27;;
18606;SDS011;9433;42.678;23.360;2022-09-03T08:32:18;4.20;;;3.73;;
18606;SDS011;9433;42.678;23.360;2022-09-03T08:34:49;3.90;;;3.40;;
18606;SDS011;9433;42.678;23.360;2022-09-03T08:37:16;5.60;;;3.93;;
18606;SDS011;9433;42.678;23.360;2022-09-03T08:39:43;5.20;;;4.13;;
18606;SDS011;9433;42.678;23.360;2022-09-03T08:42:19;4.10;;;3.70;;
18606;SDS011;9433;42.678;23.360;2022-09-03T08:44:54;7.03;;;3.80;;
18606;SDS011;9433;42.678;23.360;2022-09-03T08:47:25;4.30;;;3.30;;
18606;SDS011;9433;42.678;23.360;2022-09-03T08:49:56;5.67;;;3.83;;
18606;SDS011;9433;42.678;23.360;2022-09-03T08:52:28;4.73;;;3.87;;
18606;SDS011;9433;42.678;23.360;2022-09-03T08:55:02;6.77;;;4.30;;
18606;SDS011;9433;42.678;23.360;2022-09-03T08:57:42;5.73;;;3.77;;
18606;SDS011;9433;42.678;23.360;2022-09-03T09:00:12;4.97;;;3.87;;
18606;SDS011;9433;42.678;23.360;2022-09-03T09:02:42;3.50;;;3.20;;
18606;SDS011;9433;42.678;23.360;2022-09-03T09:05:20;3.93;;;3.53;;
18606;SDS011;9433;42.678;23.360;2022-09-03T09:07:52;4.10;;;3.70;;
18606;SDS011;9433;42.678;23.360;2022-09-03T09:10:30;4.20;;;3.10;;
18606;SDS011;9433;42.678;23.360;2022-09-03T09:13:04;4.33;;;3.57;;
18606;SDS011;9433;42.678;23.360;2022-09-03T09:15:42;4.23;;;3.83;;
18606;SDS011;9433;42.678;23.360;2022-09-03T09:18:18;3.90;;;3.50;;
18606;SDS011;9433;42.678;23.360;2022-09-03T09:20:53;3.53;;;3.23;;
18606;SDS011;9433;42.678;23.360;2022-09-03T09:23:34;5.47;;;3.57;;
18606;SDS011;9433;42.678;23.360;2022-09-03T09:26:07;3.83;;;3.53;;
18606;SDS011;9433;42.678;23.360;2022-09-03T09:28:38;4.83;;;3.80;;
18606;SDS011;9433;42.678;23.360;2022-09-03T09:31:06;4.30;;;3.30;;
18606;SDS011;9433;42.678;23.360;2022-09-03T09:33:36;3.47;;;2.90;;
18606;SDS011;9433;42.678;23.360;2022-09-03T09:36:05;3.60;;;3.00;;
18606;SDS011;9433;42.678;23.360;2022-09-03T09:38:36;3.40;;;3.10;;
18606;SDS011;9433;42.678;23.360;2022-09-03T09:41:08;3.27;;;2.97;;
18606;SDS011;9433;42.678;23.360;2022-09-03T09:43:38;3.87;;;3.47;;
18606;SDS011;9433;42.678;23.360;2022-09-03T09:46:06;3.60;;;3.30;;
18606;SDS011;9433;42.678;23.360;2022-09-03T09:48:36;5.33;;;3.87;;
18606;SDS011;9433;42.678;23.360;2022-09-03T09:51:13;4.17;;;3.77;;
18606;SDS011;9433;42.678;23.360;2022-09-03T09:53:44;3.70;;;3.40;;
18606;SDS011;9433;42.678;23.360;2022-09-03T09:56:19;3.97;;;3.20;;
18606;SDS011;9433;42.678;23.360;2022-09-03T09:58:46;4.07;;;3.23;;
18606;SDS011;9433;42.678;23.360;2022-09-03T10:01:17;3.30;;;3.00;;
18606;SDS011;9433;42.678;23.360;2022-09-03T10:03:50;4.83;;;3.60;;
18606;SDS011;9433;42.678;23.360;2022-09-03T10:06:21;3.50;;;3.03;;
18606;SDS011;9433;42.678;23.360;2022-09-03T10:09:07;3.77;;;3.30;;
18606;SDS011;9433;42.678;23.360;2022-09-03T10:11:36;4.18;;;3.40;;
18606;SDS011;9433;42.678;23.360;2022-09-03T10:14:07;3.95;;;3.08;;
18606;SDS011;9433;42.678;23.360;2022-09-03T10:16:39;4.43;;;3.42;;
18606;SDS011;9433;42.678;23.360;2022-09-03T10:19:15;3.67;;;3.28;;
18606;SDS011;9433;42.678;23.360;2022-09-03T10:21:46;3.13;;;2.83;;
18606;SDS011;9433;42.678;23.360;2022-09-03T10:24:25;3.78;;;3.17;;
18606;SDS011;9433;42.678;23.360;2022-09-03T10:27:04;3.15;;;2.85;;
18606;SDS011;9433;42.678;23.360;2022-09-03T10:29:34;3.67;;;3.10;;
18606;SDS011;9433;42.678;23.360;2022-09-03T10:32:09;3.65;;;3.28;;
18606;SDS011;9433;42.678;23.360;2022-09-03T10:34:48;3.35;;;3.05;;
18606;SDS011;9433;42.678;23.360;2022-09-03T10:37:28;3.55;;;3.25;;
18606;SDS011;9433;42.678;23.360;2022-09-03T10:40:17;3.78;;;3.42;;
18606;SDS011;9433;42.678;23.360;2022-09-03T10:42:59;3.15;;;2.85;;
18606;SDS011;9433;42.678;23.360;2022-09-03T10:45:42;3.38;;;2.95;;
18606;SDS011;9433;42.678;23.360;2022-09-03T10:48:30;3.05;;;2.75;;
18606;SDS011;9433;42.678;23.360;2022-09-03T10:51:08;2.83;;;2.63;;
18606;SDS011;9433;42.678;23.360;2022-09-03T10:53:46;3.20;;;2.90;;
18606;SDS011;9433;42.678;23.360;2022-09-03T10:56:28;4.15;;;2.95;;
18606;SDS011;9433;42.678;23.360;2022-09-03T10:59:08;3.40;;;3.10;;
18606;SDS011;9433;42.678;23.360;2022-09-03T11:01:53;3.38;;;2.83;;
18606;SDS011;9433;42.678;23.360;2022-09-03T11:04:27;3.20;;;2.90;;
18606;SDS011;9433;42.678;23.360;2022-09-03T11:07:04;2.60;;;2.35;;
18606;SDS011;9433;42.678;23.360;2022-09-03T11:09:37;3.25;;;2.95;;
18606;SDS011;9433;42.678;23.360;2022-09-03T11:12:08;2.80;;;2.60;;
18606;SDS011;9433;42.678;23.360;2022-09-03T11:14:40;3.47;;;2.85;;
18606;SDS011;9433;42.678;23.360;2022-09-03T11:17:10;3.28;;;2.92;;
18606;SDS011;9433;42.678;23.360;2022-09-03T11:19:47;2.80;;;2.30;;
18606;SDS011;9433;42.678;23.360;2022-09-03T11:22:19;3.33;;;2.60;;
18606;SDS011;9433;42.678;23.360;2022-09-03T11:24:50;5.13;;;2.70;;
18606;SDS011;9433;42.678;23.360;2022-09-03T11:27:23;3.50;;;2.70;;
18606;SDS011;9433;42.678;23.360;2022-09-03T11:29:59;2.47;;;2.28;;
18606;SDS011;9433;42.678;23.360;2022-09-03T11:32:32;4.72;;;2.65;;
18606;SDS011;9433;42.678;23.360;2022-09-03T11:35:13;3.00;;;2.63;;
18606;SDS011;9433;42.678;23.360;2022-09-03T11:37:47;2.40;;;2.20;;
18606;SDS011;9433;42.678;23.360;2022-09-03T11:40:27;3.17;;;2.35;;
18606;SDS011;9433;42.678;23.360;2022-09-03T11:43:04;3.15;;;2.70;;
18606;SDS011;9433;42.678;23.360;2022-09-03T11:45:33;3.35;;;2.42;;
18606;SDS011;9433;42.678;23.360;2022-09-03T11:48:01;3.58;;;2.38;;
18606;SDS011;9433;42.678;23.360;2022-09-03T11:50:51;2.35;;;2.15;;
18606;SDS011;9433;42.678;23.360;2022-09-03T11:53:23;3.00;;;2.80;;
18606;SDS011;9433;42.678;23.360;2022-09-03T11:55:58;2.63;;;2.42;;
18606;SDS011;9433;42.678;23.360;2022-09-03T11:58:28;3.08;;;2.40;;
18606;SDS011;9433;42.678;23.360;2022-09-03T12:00:58;2.35;;;2.20;;
18606;SDS011;9433;42.678;23.360;2022-09-03T12:03:27;3.35;;;3.00;;
18606;SDS011;9433;42.678;23.360;2022-09-03T12:06:07;3.75;;;2.90;;
18606;SDS011;9433;42.678;23.360;2022-09-03T12:08:56;2.88;;;2.65;;
18606;SDS011;9433;42.678;23.360;2022-09-03T12:11:37;2.80;;;2.58;;
18606;SDS011;9433;42.678;23.360;2022-09-03T12:14:12;3.85;;;2.60;;
18606;SDS011;9433;42.678;23.360;2022-09-03T12:16:53;3.15;;;2.85;;
18606;SDS011;9433;42.678;23.360;2022-09-03T12:19:34;3.08;;;2.80;;
18606;SDS011;9433;42.678;23.360;2022-09-03T12:22:05;3.08;;;2.65;;
18606;SDS011;9433;42.678;23.360;2022-09-03T12:24:32;3.78;;;2.65;;
18606;SDS011;9433;42.678;23.360;2022-09-03T12:27:01;4.20;;;3.38;;
18606;SDS011;9433;42.678;23.360;2022-09-03T12:29:28;3.17;;;2.88;;
18606;SDS011;9433;42.678;23.360;2022-09-03T12:32:04;3.28;;;3.03;;
18606;SDS011;9433;42.678;23.360;2022-09-03T12:34:32;3.05;;;2.75;;
18606;SDS011;9433;42.678;23.360;2022-09-03T12:36:59;3.28;;;2.97;;
18606;SDS011;9433;42.678;23.360;2022-09-03T12:39:26;4.68;;;3.40;;
18606;SDS011;9433;42.678;23.360;2022-09-03T12:42:05;3.08;;;2.83;;
18606;SDS011;9433;42.678;23.360;2022-09-03T12:44:37;3.30;;;3.00;;
18606;SDS011;9433;42.678;23.360;2022-09-03T12:47:08;3.53;;;3.22;;
18606;SDS011;9433;42.678;23.360;2022-09-03T12:49:37;3.25;;;2.88;;
18606;SDS011;9433;42.678;23.360;2022-09-03T12:52:10;3.60;;;2.70;;
18606;SDS011;9433;42.678;23.360;2022-09-03T12:54:45;3.72;;;3.00;;
18606;SDS011;9433;42.678;23.360;2022-09-03T12:57:20;2.78;;;2.53;;
18606;SDS011;9433;42.678;23.360;2022-09-03T12:59:49;3.58;;;2.63;;
18606;SDS011;9433;42.678;23.360;2022-09-03T13:02:21;3.20;;;2.85;;
18606;SDS011;9433;42.678;23.360;2022-09-03T13:04:51;2.85;;;2.40;;
18606;SDS011;9433;42.678;23.360;2022-09-03T13:07:23;2.92;;;2.63;;
18606;SDS011;9433;42.678;23.360;2022-09-03T13:09:57;1.92;;;1.75;;
18606;SDS011;9433;42.678;23.360;2022-09-03T13:12:31;1.60;;;1.50;;
18606;SDS011;9433;42.678;23.360;2022-09-03T13:15:07;2.40;;;2.08;;
18606;SDS011;9433;42.678;23.360;2022-09-03T13:17:42;2.70;;;2.33;;
18606;SDS011;9433;42.678;23.360;2022-09-03T13:20:32;2.70;;;2.35;;
18606;SDS011;9433;42.678;23.360;2022-09-03T13:23:16;2.50;;;2.30;;
18606;SDS011;9433;42.678;23.360;2022-09-03T13:26:00;2.30;;;2.10;;
18606;SDS011;9433;42.678;23.360;2022-09-03T13:28:42;2.20;;;2.00;;
18606;SDS011;9433;42.678;23.360;2022-09-03T13:31:23;2.50;;;2.30;;
18606;SDS011;9433;42.678;23.360;2022-09-03T13:33:56;2.60;;;2.28;;
18606;SDS011;9433;42.678;23.360;2022-09-03T13:36:29;2.67;;;2.40;;
18606;SDS011;9433;42.678;23.360;2022-09-03T13:39:02;2.42;;;2.15;;
18606;SDS011;9433;42.678;23.360;2022-09-03T13:41:36;2.40;;;2.20;;
18606;SDS011;9433;42.678;23.360;2022-09-03T13:47:30;2.00;;;1.77;;
18606;SDS011;9433;42.678;23.360;2022-09-03T13:50:05;2.17;;;1.98;;
18606;SDS011;9433;42.678;23.360;2022-09-03T13:52:49;2.85;;;2.20;;
18606;SDS011;9433;42.678;23.360;2022-09-03T13:55:25;2.22;;;2.03;;
18606;SDS011;9433;42.678;23.360;2022-09-03T13:57:58;2.28;;;2.08;;
18606;SDS011;9433;42.678;23.360;2022-09-03T14:00:32;2.30;;;1.80;;
18606;SDS011;9433;42.678;23.360;2022-09-03T14:03:06;1.85;;;1.63;;
18606;SDS011;9433;42.678;23.360;2022-09-03T14:05:46;1.70;;;1.60;;
18606;SDS011;9433;42.678;23.360;2022-09-03T14:08:27;1.73;;;1.60;;
18606;SDS011;9433;42.678;23.360;2022-09-03T14:11:02;1.77;;;1.60;;
18606;SDS011;9433;42.678;23.360;2022-09-03T14:13:46;2.00;;;1.80;;
18606;SDS011;9433;42.678;23.360;2022-09-03T14:16:24;2.85;;;1.88;;
18606;SDS011;9433;42.678;23.360;2022-09-03T14:19:02;2.28;;;2.08;;
18606;SDS011;9433;42.678;23.360;2022-09-03T14:21:38;1.90;;;1.80;;
18606;SDS011;9433;42.678;23.360;2022-09-03T14:24:11;2.42;;;2.22;;
18606;SDS011;9433;42.678;23.360;2022-09-03T14:26:48;3.88;;;3.53;;
18606;SDS011;9433;42.678;23.360;2022-09-03T14:29:17;2.60;;;2.35;;
18606;SDS011;9433;42.678;23.360;2022-09-03T14:32:01;2.63;;;2.25;;
18606;SDS011;9433;42.678;23.360;2022-09-03T14:34:46;2.80;;;2.47;;
18606;SDS011;9433;42.678;23.360;2022-09-03T14:37:31;3.60;;;2.75;;
18606;SDS011;9433;42.678;23.360;2022-09-03T14:40:11;2.40;;;2.13;;
18606;SDS011;9433;42.678;23.360;2022-09-03T14:42:52;3.03;;;2.63;;
18606;SDS011;9433;42.678;23.360;2022-09-03T14:45:40;2.30;;;2.10;;
18606;SDS011;9433;42.678;23.360;2022-09-03T14:48:24;3.55;;;2.20;;
18606;SDS011;9433;42.678;23.360;2022-09-03T14:51:31;2.42;;;2.15;;
18606;SDS011;9433;42.678;23.360;2022-09-03T14:56:59;1.98;;;1.80;;
18606;SDS011;9433;42.678;23.360;2022-09-03T15:08:31;2.25;;;2.05;;
18606;SDS011;9433;42.678;23.360;2022-09-03T15:11:14;2.15;;;2.00;;
18606;SDS011;9433;42.678;23.360;2022-09-03T15:13:45;5.13;;;2.17;;
18606;SDS011;9433;42.678;23.360;2022-09-03T15:16:19;2.13;;;2.00;;
18606;SDS011;9433;42.678;23.360;2022-09-03T15:19:05;2.40;;;2.20;;
18606;SDS011;9433;42.678;23.360;2022-09-03T15:21:41;4.32;;;2.45;;
18606;SDS011;9433;42.678;23.360;2022-09-03T15:24:29;2.38;;;2.17;;
18606;SDS011;9433;42.678;23.360;2022-09-03T15:27:07;2.13;;;1.77;;
18606;SDS011;9433;42.678;23.360;2022-09-03T15:29:48;3.17;;;2.20;;
18606;SDS011;9433;42.678;23.360;2022-09-03T15:32:21;2.00;;;1.90;;
18606;SDS011;9433;42.678;23.360;2022-09-03T15:35:04;2.00;;;1.83;;
18606;SDS011;9433;42.678;23.360;2022-09-03T15:37:38;3.47;;;2.50;;